ADDS METAR Data INFO
IDs: Format: Raw Decoded Include TAF

Data at: 1845 UTC 17 Oct 2017

KOMA 171752Z 17009KT 10SM CLR 18/07 A3009 RMK AO2 SLP187 T01830067 10183 20083 58010
KOMA 171652Z 19006KT 10SM CLR 17/06 A3010 RMK AO2 SLP191 T01670061
KOMA 171552Z 20008KT 10SM CLR 15/06 A3011 RMK AO2 SLP194 T01500061
KOMA 171452Z 17008KT 10SM CLR 12/06 A3012 RMK AO2 SLP197 T01220061 53002
KOMA 171352Z 16009KT 10SM CLR 10/05 A3012 RMK AO2 SLP198 T01000050
KOMA 171252Z 16008KT 10SM CLR 08/04 A3011 RMK AO2 SLP195 T00830044
KOMA 171152Z 16008KT 10SM CLR 09/05 A3011 RMK AO2 SLP195 T00890050 10111 20078 50004
KOMA 171052Z 14008KT 10SM CLR 08/04 A3012 RMK AO2 SLP196 T00830039
KOMA 170952Z 15008KT 10SM CLR 09/05 A3010 RMK AO2 SLP189 T00940050
KOMA 170852Z 16009KT 10SM CLR 09/05 A3010 RMK AO2 SLP190 T00940050 58006
KOMA 170752Z 16009KT 10SM CLR 09/05 A3011 RMK AO2 SLP193 T00940050
KOMA 170652Z 16010KT 10SM FEW250 11/05 A3011 RMK AO2 SLP194 T01060050
KOMA 170552Z 16010KT 10SM FEW250 11/05 A3012 RMK AO2 SLP197 T01110050 10200 20111 402330039 58002
KOMA 170452Z 17009KT 10SM FEW250 14/04 A3012 RMK AO2 SLP197 T01390044
KOMA 170352Z 16011KT 10SM SCT250 14/05 A3013 RMK AO2 SLP200 T01390050
KOMA 170252Z 16010KT 10SM FEW250 16/04 A3012 RMK AO2 SLP199 T01610044 53003
KOMA 170152Z 17012KT 10SM CLR 17/04 A3012 RMK AO2 SLP198 T01720044
KOMA 170052Z 18009KT 10SM FEW250 18/04 A3011 RMK AO2 SLP196 T01780044
KOMA 162352Z 18011KT 10SM SCT250 20/04 A3011 RMK AO2 SLP197 T02000039 10233 20200 56012
KOMA 162252Z 19010KT 10SM SCT250 22/02 A3011 RMK AO2 SLP196 T02170022
KOMA 162152Z 20013KT 10SM FEW250 23/02 A3012 RMK AO2 SLP200 T02280022
KOMA 162052Z 20009KT 10SM FEW250 23/03 A3015 RMK AO2 SLP207 T02330028 56036
KOMA 161952Z 20016G23KT 10SM FEW250 23/01 A3016 RMK AO2 SLP214 T02280011
KOMA 161852Z 21011G22KT 10SM CLR 22/01 A3021 RMK AO2 SLP229 T02170011
KOMA 161752Z 17016G20KT 10SM CLR 20/03 A3026 RMK AO2 SLP246 T02000028 10200 20044 58025
KOMA 161652Z 16011KT 10SM CLR 18/04 A3029 RMK AO2 SLP259 T01780044
KOMA 161552Z 16007KT 10SM CLR 14/05 A3032 RMK AO2 SLP268 T01440050
KOMA 161452Z 16006KT 10SM CLR 10/04 A3033 RMK AO2 SLP275 T01000044 58003
KOMA 161352Z 16006KT 10SM CLR 07/03 A3034 RMK AO2 SLP278 T00670033
KOMA 161252Z 16006KT 10SM CLR 05/02 A3034 RMK AO2 SLP279 T00500017
KOMA 161152Z 13005KT 10SM CLR 04/02 A3034 RMK AO2 SLP279 T00440017 10067 20039 53004
KOMA 161052Z 17005KT 10SM CLR 05/02 A3033 RMK AO2 SLP274 T00500017
KOMA 160952Z 14006KT 10SM CLR 04/01 A3033 RMK AO2 SLP274 T00390011
KOMA 160852Z 18004KT 10SM CLR 05/02 A3033 RMK AO2 SLP273 T00500017 58003
KOMA 160752Z 13004KT 10SM CLR 04/02 A3034 RMK AO2 SLP277 T00440022
KOMA 160652Z 13003KT 10SM CLR 06/03 A3034 RMK AO2 SLP276 T00610028